This is the latest recevied weather packets stored in our database for station/object EA8BQU-10. If no packets are shown the sender has not sent any weather packets the latest 1 day(s).
| Time | Temp. | Humidity | Pressure | Rain* | Wind** | Luminosity | Snow |
|---|---|---|---|---|---|---|---|
| 1777761049 | 20.56° C | 97% | 1019.6 hPa | - | - | - | - |
| 1777760149 | 20.56° C | 96% | 1019.5 hPa | - | - | - | - |
| 1777759249 | 20.56° C | 97% | 1019.3 hPa | - | - | - | - |
| 1777758349 | 21.11° C | 97% | 1019.4 hPa | - | - | - | - |
| 1777756548 | 20.56° C | 100% | 1019.2 hPa | - | - | - | - |
| 1777755647 | 21.11° C | 97% | 1019.2 hPa | - | - | - | - |
| 1777754747 | 21.11° C | 96% | 1019.1 hPa | - | - | - | - |
| 1777753847 | 21.11° C | 96% | 1019.1 hPa | - | - | - | - |
| 1777752947 | 21.67° C | 95% | 1018.9 hPa | - | - | - | - |
| 1777752046 | 21.11° C | 96% | 1018.7 hPa | - | - | - | - |
| 1777751146 | 21.67° C | 91% | 1018.5 hPa | - | - | - | - |
| 1777750246 | 21.67° C | 94% | 1018.4 hPa | - | - | - | - |
| 1777749346 | 21.67° C | 93% | 1018.4 hPa | - | - | - | - |
| 1777748446 | 22.22° C | 91% | 1018.3 hPa | - | - | - | - |
| 1777747546 | 22.22° C | 90% | 1018.4 hPa | - | - | - | - |
| 1777746646 | 22.78° C | 89% | 1018.2 hPa | - | - | - | - |
| 1777745746 | 22.22° C | 92% | 1018.5 hPa | - | - | - | - |
| 1777744845 | 22.22° C | 91% | 1018.4 hPa | - | - | - | - |
| 1777743943 | 22.22° C | 90% | 1018.5 hPa | - | - | - | - |
| 1777743048 | 22.22° C | 90% | 1018.6 hPa | - | - | - | - |
* Rain since midnight (hover to see other rain measurements)
** Current wind speed in m/s (hover to see current wind gust speed)